Time;durP1;ratioP1;P1;durP2;ratioP2;P2;SDS_P1;SDS_P2;PMS_P1;PMS_P2;Temp;Humidity;BMP_temperature;BMP_pressure;BME280_temperature;BME280_humidity;BME280_pressure;Samples;Min_cycle;Max_cycle;Signal;HPM_P1;HPM_P2
2022/11/05 00:16:42;;;;;;;0.10;0.10;;;7.90;99.90;;;;;;5065176;28;20053;-63
2022/11/05 00:16:48;;;;;;;0.10;0.10;;;7.90;99.90;;;;;;5070196;28;20411;-63
2022/11/05 00:19:13;;;;;;;0.10;0.10;;;7.90;99.90;;;;;;5058090;28;20040;-63
2022/11/05 00:27:08;;;;;;;0.10;0.10;;;7.90;99.90;;;;;;5056811;28;20139;-63
2022/11/05 00:29:34;;;;;;;0.10;0.10;;;7.80;99.90;;;;;;5048406;28;20084;-63
2022/11/05 00:31:59;;;;;;;0.75;0.75;;;7.90;99.90;;;;;;5052282;28;20084;-63
2022/11/05 00:34:25;;;;;;;0.70;0.70;;;7.90;99.90;;;;;;5069781;28;20089;-63
2022/11/05 00:36:51;;;;;;;2.67;1.17;;;7.90;99.90;;;;;;5068744;28;20095;-63
2022/11/05 00:39:16;;;;;;;0.50;0.50;;;7.70;99.90;;;;;;5050028;28;20084;-64
2022/11/05 00:41:42;;;;;;;0.10;0.10;;;7.60;99.90;;;;;;5049146;28;20041;-63
2022/11/05 00:49:28;;;;;;;;;;;7.60;99.90;;;;;;5070650;28;20045;-63
2022/11/05 00:49:36;;;;;;;0.10;0.10;;;7.70;99.90;;;;;;5071121;28;19999;-63
2022/11/05 00:54:46;;;;;;;0.40;0.40;;;7.70;99.90;;;;;;5060974;28;20053;-64
2022/11/05 00:57:12;;;;;;;0.10;0.10;;;7.70;99.90;;;;;;5059276;28;20053;-63
2022/11/05 00:59:37;;;;;;;0.10;0.10;;;7.70;99.90;;;;;;5056209;28;20044;-63
2022/11/05 01:02:03;;;;;;;0.10;0.10;;;7.70;99.90;;;;;;5053935;28;20044;-63
2022/11/05 01:04:28;;;;;;;0.10;0.10;;;7.70;99.90;;;;;;5060387;28;20045;-63
2022/11/05 01:06:54;;;;;;;0.10;0.10;;;7.70;99.90;;;;;;5053486;28;20109;-63
2022/11/05 01:09:20;;;;;;;0.20;0.20;;;7.80;99.90;;;;;;5062634;28;20036;-63
2022/11/05 01:11:45;;;;;;;0.10;0.10;;;7.70;99.90;;;;;;5053229;28;20076;-63
2022/11/05 01:14:14;;;;;;;0.75;0.70;;;7.70;99.90;;;;;;5073532;28;20040;-63
2022/11/05 01:16:40;;;;;;;0.10;0.10;;;7.80;99.90;;;;;;5071885;28;20036;-63
2022/11/05 01:19:08;;;;;;;0.10;0.10;;;7.80;99.90;;;;;;5052742;28;20045;-63
2022/11/05 01:21:34;;;;;;;0.10;0.10;;;7.80;99.90;;;;;;5052691;28;20052;-63
2022/11/05 01:24:00;;;;;;;0.10;0.10;;;7.90;99.90;;;;;;5038670;28;20028;-64
2022/11/05 01:26:26;;;;;;;0.10;0.10;;;7.90;99.90;;;;;;5067887;28;20045;-63
2022/11/05 01:28:53;;;;;;;0.15;0.15;;;7.90;99.90;;;;;;5038990;28;20419;-63
2022/11/05 01:31:19;;;;;;;0.10;0.10;;;7.80;99.90;;;;;;5072574;28;20059;-64
2022/11/05 01:33:44;;;;;;;0.10;0.10;;;7.90;99.90;;;;;;5068611;28;20048;-63
2022/11/05 01:36:10;;;;;;;0.10;0.10;;;7.90;99.90;;;;;;5052961;28;20041;-63
2022/11/05 01:38:36;;;;;;;0.10;0.10;;;7.90;99.90;;;;;;5050163;28;20377;-63
2022/11/05 01:41:03;;;;;;;0.10;0.10;;;7.80;99.90;;;;;;5054814;28;20391;-63
2022/11/05 01:43:49;;;;;;;0.20;0.20;;;7.80;99.90;;;;;;5073039;28;20049;-63
2022/11/05 01:46:20;;;;;;;0.10;0.10;;;7.70;99.90;;;;;;5068383;28;20045;-63
2022/11/05 01:48:47;;;;;;;0.00;0.00;;;7.60;99.90;;;;;;5056790;28;20106;-63
2022/11/05 01:51:18;;;;;;;0.10;0.10;;;7.60;99.90;;;;;;5052479;28;20056;-63
2022/11/05 01:54:08;;;;;;;0.13;0.13;;;7.50;99.90;;;;;;5053090;28;20369;-63
2022/11/05 01:56:39;;;;;;;0.10;0.10;;;7.50;99.90;;;;;;5044532;28;20442;-63
2022/11/05 01:59:34;;;;;;;0.10;0.10;;;7.50;99.90;;;;;;5072084;28;20071;-63
2022/11/05 02:02:00;;;;;;;;;;;7.50;99.90;;;;;;5051750;28;20057;-63
2022/11/05 02:04:45;;;;;;;0.20;0.20;;;7.60;99.90;;;;;;5052345;28;20393;-63
2022/11/05 02:07:11;;;;;;;0.43;0.43;;;7.60;99.90;;;;;;5043683;28;20040;-63
2022/11/05 02:09:53;;;;;;;0.10;0.10;;;7.70;99.90;;;;;;5067260;28;20041;-64
2022/11/05 02:12:20;;;;;;;0.10;0.10;;;7.70;99.90;;;;;;5056488;28;20052;-63
2022/11/05 02:14:45;;;;;;;0.10;0.10;;;7.80;99.90;;;;;;5052265;28;20044;-64
2022/11/05 02:17:41;;;;;;;0.75;0.75;;;7.90;99.90;;;;;;5058912;28;20437;-63
2022/11/05 02:20:43;;;;;;;0.10;0.10;;;8.00;99.90;;;;;;5061454;28;20043;-64
2022/11/05 02:23:35;;;;;;;0.10;0.10;;;8.00;99.90;;;;;;5051697;28;20068;-63
2022/11/05 02:26:18;;;;;;;0.10;0.10;;;8.00;99.90;;;;;;5052262;28;20518;-64
2022/11/05 02:29:21;;;;;;;0.17;0.17;;;7.90;99.90;;;;;;5050998;28;20040;-64
2022/11/05 02:32:24;;;;;;;0.10;0.10;;;7.90;99.90;;;;;;5054356;28;20056;-63
2022/11/05 02:35:08;;;;;;;0.10;0.10;;;7.90;99.90;;;;;;5057837;28;20076;-63
2022/11/05 02:38:00;;;;;;;0.10;0.10;;;8.00;99.90;;;;;;5059547;28;20109;-63
2022/11/05 02:40:32;;;;;;;0.10;0.10;;;8.00;99.90;;;;;;5060666;28;20057;-63
2022/11/05 02:43:29;;;;;;;0.00;0.00;;;8.10;99.90;;;;;;5051705;28;20119;-63
2022/11/05 02:46:10;;;;;;;0.10;0.10;;;8.10;99.90;;;;;;5058647;28;20045;-63
2022/11/05 02:49:09;;;;;;;0.20;0.20;;;8.20;99.90;;;;;;5049391;28;20067;-63
2022/11/05 02:51:51;;;;;;;0.10;0.10;;;8.40;99.90;;;;;;5019937;28;20060;-63
2022/11/05 02:54:25;;;;;;;0.10;0.10;;;8.40;99.90;;;;;;5062904;28;20053;-63
2022/11/05 02:56:54;;;;;;;0.10;0.10;;;8.50;99.90;;;;;;5050992;28;20049;-64
2022/11/05 02:59:20;;;;;;;0.10;0.10;;;8.50;99.90;;;;;;5053449;28;20051;-63
2022/11/05 03:01:47;;;;;;;0.10;0.10;;;8.60;99.90;;;;;;5050812;28;20044;-63
2022/11/05 03:04:15;;;;;;;0.10;0.10;;;8.50;99.90;;;;;;5070777;28;20227;-64
2022/11/05 03:06:47;;;;;;;0.30;0.30;;;8.70;99.90;;;;;;5070944;28;20048;-63
2022/11/05 03:09:19;;;;;;;0.10;0.10;;;8.80;99.90;;;;;;5052138;28;20044;-64
2022/11/05 03:11:57;;;;;;;0.10;0.10;;;8.80;99.90;;;;;;5053715;28;20102;-63
2022/11/05 03:14:33;;;;;;;0.10;0.10;;;8.80;99.90;;;;;;5051000;28;20106;-64
2022/11/05 03:17:11;;;;;;;0.10;0.10;;;8.80;99.90;;;;;;5051247;28;20071;-63
2022/11/05 03:19:59;;;;;;;0.10;0.10;;;8.90;99.90;;;;;;5051052;28;20053;-64
2022/11/05 03:22:39;;;;;;;0.10;0.10;;;8.90;99.90;;;;;;5050871;28;20385;-64
2022/11/05 03:25:11;;;;;;;0.10;0.10;;;9.00;99.90;;;;;;5051880;28;20037;-63
2022/11/05 03:27:40;;;;;;;0.10;0.10;;;8.90;99.90;;;;;;5038378;28;20048;-64
2022/11/05 03:30:10;;;;;;;0.10;0.10;;;9.00;99.90;;;;;;5058522;28;20068;-63
2022/11/05 03:32:39;;;;;;;0.10;0.10;;;8.90;99.90;;;;;;5050101;28;20041;-64
2022/11/05 03:35:21;;;;;;;0.13;0.13;;;8.90;99.90;;;;;;5064828;28;20098;-64
2022/11/05 03:37:51;;;;;;;0.10;0.10;;;8.90;99.90;;;;;;5062053;28;20049;-64
2022/11/05 03:40:20;;;;;;;0.10;0.10;;;8.90;99.90;;;;;;5050301;28;20095;-64
2022/11/05 03:42:50;;;;;;;0.10;0.10;;;8.90;99.90;;;;;;5068333;28;20056;-64
2022/11/05 03:45:20;;;;;;;0.10;0.10;;;8.90;99.90;;;;;;5053569;28;20483;-64
2022/11/05 03:47:49;;;;;;;0.10;0.10;;;8.90;99.90;;;;;;5056989;28;20062;-64
2022/11/05 03:50:21;;;;;;;0.10;0.10;;;8.90;99.90;;;;;;5070828;28;20419;-63
2022/11/05 03:52:58;;;;;;;0.10;0.10;;;8.90;99.90;;;;;;5059857;28;20059;-63
2022/11/05 03:55:34;;;;;;;0.10;0.10;;;8.90;99.90;;;;;;5053353;28;20041;-63
2022/11/05 03:58:02;;;;;;;0.10;0.10;;;8.90;99.90;;;;;;5051608;28;20458;-64
2022/11/05 04:00:28;;;;;;;0.10;0.10;;;8.90;99.90;;;;;;5064578;28;20055;-64
2022/11/05 04:02:54;;;;;;;0.10;0.10;;;8.90;99.90;;;;;;5071160;28;20044;-63
2022/11/05 04:05:19;;;;;;;0.00;0.00;;;9.00;99.90;;;;;;5053747;28;20051;-63
2022/11/05 04:13:23;;;;;;;0.10;0.10;;;8.90;99.90;;;;;;5050691;28;20110;-64
2022/11/05 04:18:33;;;;;;;0.10;0.10;;;9.00;99.90;;;;;;5066412;28;20395;-64
2022/11/05 04:26:27;;;;;;;0.10;0.10;;;9.10;99.90;;;;;;5031860;28;20099;-64
2022/11/05 04:31:37;;;;;;;0.10;0.10;;;9.10;99.90;;;;;;5065797;28;20040;-63
2022/11/05 04:34:03;;;;;;;0.10;0.10;;;9.10;99.90;;;;;;5062996;28;20095;-63
2022/11/05 04:36:29;;;;;;;0.10;0.10;;;9.10;99.90;;;;;;5051288;28;20040;-63
2022/11/05 04:38:54;;;;;;;0.10;0.10;;;9.20;99.90;;;;;;5050895;28;20049;-63
2022/11/05 04:41:20;;;;;;;0.10;0.10;;;9.10;99.90;;;;;;5031825;28;20048;-64
2022/11/05 04:43:45;;;;;;;0.40;0.40;;;9.10;99.90;;;;;;5049928;28;20442;-63
2022/11/05 04:46:11;;;;;;;0.10;0.10;;;9.10;99.90;;;;;;5056217;28;20033;-64
2022/11/05 04:48:37;;;;;;;0.00;0.00;;;9.10;99.90;;;;;;5066826;28;20388;-64
2022/11/05 04:51:03;;;;;;;0.10;0.10;;;9.10;99.90;;;;;;5068344;28;20045;-63
2022/11/05 04:53:30;;;;;;;0.10;0.10;;;9.10;99.90;;;;;;5054528;28;20033;-63
2022/11/05 04:56:09;;;;;;;0.13;0.13;;;9.10;99.90;;;;;;5050445;28;20048;-63
2022/11/05 04:58:38;;;;;;;0.10;0.10;;;9.10;99.90;;;;;;5064241;28;20048;-63
2022/11/05 05:01:03;;;;;;;0.05;0.05;;;9.10;99.90;;;;;;5050014;28;20051;-63
2022/11/05 05:03:29;;;;;;;0.10;0.10;;;9.10;99.90;;;;;;5049154;28;20053;-64
2022/11/05 05:05:58;;;;;;;0.10;0.10;;;9.10;99.90;;;;;;5067008;28;20072;-63
2022/11/05 05:08:23;;;;;;;0.10;0.10;;;9.10;99.90;;;;;;5051963;28;20049;-64
2022/11/05 05:10:49;;;;;;;0.10;0.10;;;9.10;99.90;;;;;;5051468;28;20102;-64
2022/11/05 05:13:14;;;;;;;0.10;0.10;;;9.10;99.90;;;;;;5051564;28;20056;-64
2022/11/05 05:15:40;;;;;;;0.10;0.10;;;9.10;99.90;;;;;;5049865;28;20136;-64
2022/11/05 05:18:07;;;;;;;0.17;0.17;;;9.10;99.90;;;;;;5068180;28;20045;-64
2022/11/05 05:23:17;;;;;;;0.10;0.10;;;9.10;99.90;;;;;;5055348;28;20052;-64
2022/11/05 05:25:43;;;;;;;0.10;0.10;;;9.10;99.90;;;;;;5061494;28;20480;-64
2022/11/05 05:28:08;;;;;;;0.08;0.08;;;9.00;99.90;;;;;;5059121;28;20083;-64
2022/11/05 05:30:34;;;;;;;0.10;0.10;;;9.00;99.90;;;;;;5071956;28;20063;-63
2022/11/05 05:33:03;;;;;;;0.10;0.10;;;8.90;99.90;;;;;;5056860;28;20110;-63
2022/11/05 05:35:29;;;;;;;0.00;0.00;;;8.90;99.90;;;;;;5064819;28;20116;-63
2022/11/05 05:37:55;;;;;;;0.10;0.10;;;8.90;99.90;;;;;;5039599;28;20448;-63
2022/11/05 05:40:21;;;;;;;0.00;0.00;;;8.80;99.90;;;;;;5072284;28;20044;-63
2022/11/05 05:42:47;;;;;;;0.10;0.10;;;8.80;99.90;;;;;;5073128;28;20095;-63
2022/11/05 05:45:12;;;;;;;0.10;0.10;;;8.80;99.90;;;;;;5062589;28;20071;-63
2022/11/05 05:47:38;;;;;;;0.10;0.10;;;8.70;99.90;;;;;;5060326;28;20048;-63
2022/11/05 05:50:04;;;;;;;0.10;0.10;;;8.70;99.90;;;;;;5054033;28;20045;-63
2022/11/05 05:52:30;;;;;;;0.10;0.10;;;8.70;99.90;;;;;;5068548;28;20044;-63
2022/11/05 05:54:56;;;;;;;0.52;0.35;;;8.60;99.90;;;;;;5070248;28;20050;-63
2022/11/05 05:57:21;;;;;;;0.10;0.10;;;8.60;99.90;;;;;;5055870;28;20395;-63
2022/11/05 05:59:47;;;;;;;0.10;0.10;;;8.50;99.90;;;;;;5072251;28;20044;-63
2022/11/05 06:02:12;;;;;;;0.10;0.10;;;8.50;99.90;;;;;;5068584;28;20037;-63
2022/11/05 06:04:38;;;;;;;0.10;0.10;;;8.50;99.90;;;;;;5039401;28;20105;-63
2022/11/05 06:07:03;;;;;;;0.10;0.10;;;8.50;99.90;;;;;;5072057;28;20060;-63
2022/11/05 06:09:29;;;;;;;0.10;0.10;;;8.50;99.90;;;;;;5064540;28;20045;-63
2022/11/05 06:11:54;;;;;;;0.57;0.57;;;8.50;99.90;;;;;;5053099;28;20044;-64
2022/11/05 06:14:20;;;;;;;0.00;0.00;;;8.50;99.90;;;;;;5051902;28;20041;-64
2022/11/05 06:16:46;;;;;;;2.05;1.30;;;8.50;99.90;;;;;;5052597;28;20086;-63
2022/11/05 06:19:11;;;;;;;0.28;0.28;;;8.50;99.90;;;;;;5052096;28;20066;-63
2022/11/05 06:21:37;;;;;;;0.00;0.00;;;8.50;99.90;;;;;;5067862;28;20049;-63
2022/11/05 06:24:03;;;;;;;0.25;0.25;;;8.60;99.90;;;;;;5064143;28;20377;-63
2022/11/05 06:26:29;;;;;;;0.10;0.10;;;8.60;99.90;;;;;;5053659;28;20048;-64
2022/11/05 06:28:55;;;;;;;0.10;0.10;;;8.60;99.90;;;;;;5051900;28;20045;-63
2022/11/05 06:31:20;;;;;;;0.10;0.10;;;8.60;99.90;;;;;;5012035;28;20069;-63
2022/11/05 06:33:46;;;;;;;0.10;0.10;;;8.70;99.90;;;;;;5012278;28;20037;-63
2022/11/05 06:36:16;;;;;;;0.10;0.10;;;8.70;99.90;;;;;;5027117;28;20056;-63
2022/11/05 06:38:42;;;;;;;0.20;0.20;;;8.70;99.90;;;;;;5016189;28;20148;-63
2022/11/05 06:41:08;;;;;;;0.10;0.10;;;8.70;99.90;;;;;;5024757;28;20501;-63
2022/11/05 06:43:33;;;;;;;0.10;0.10;;;8.70;99.90;;;;;;5011696;28;20120;-64
2022/11/05 06:46:01;;;;;;;0.10;0.10;;;8.70;99.90;;;;;;5012550;28;20042;-63
2022/11/05 06:48:27;;;;;;;0.10;0.10;;;8.70;99.90;;;;;;5011690;28;20046;-63
2022/11/05 06:50:53;;;;;;;0.10;0.10;;;8.70;99.90;;;;;;5024933;28;20050;-63
2022/11/05 06:53:19;;;;;;;0.17;0.17;;;8.60;99.90;;;;;;5024937;28;20112;-63
2022/11/05 06:55:46;;;;;;;0.10;0.10;;;8.60;99.90;;;;;;5014426;28;20042;-63
2022/11/05 06:58:13;;;;;;;0.57;0.57;;;8.60;99.90;;;;;;5011642;28;20049;-64
2022/11/05 07:00:38;;;;;;;0.38;0.38;;;8.50;99.90;;;;;;5027984;28;20581;-64
2022/11/05 07:03:05;;;;;;;0.10;0.10;;;8.50;99.90;;;;;;5025773;28;20057;-64
2022/11/05 07:05:31;;;;;;;0.10;0.10;;;8.50;99.90;;;;;;5023759;28;20048;-64
2022/11/05 07:07:57;;;;;;;0.00;0.00;;;8.60;99.90;;;;;;5017313;28;20041;-64
2022/11/05 07:10:22;;;;;;;0.10;0.10;;;8.60;99.90;;;;;;5016393;28;20042;-64
2022/11/05 07:12:48;;;;;;;0.10;0.10;;;8.70;99.90;;;;;;5025885;28;20049;-64
2022/11/05 07:15:13;;;;;;;0.00;0.00;;;8.70;99.90;;;;;;5020065;28;20061;-64
2022/11/05 07:17:39;;;;;;;0.10;0.10;;;8.80;99.90;;;;;;5017235;28;20044;-64
2022/11/05 07:20:07;;;;;;;0.10;0.10;;;8.80;99.90;;;;;;5019394;28;20034;-64
2022/11/05 07:22:33;;;;;;;0.13;0.13;;;8.90;99.90;;;;;;5028033;28;20124;-64
2022/11/05 07:24:59;;;;;;;0.10;0.10;;;8.90;99.90;;;;;;5017916;28;20128;-64
2022/11/05 07:27:24;;;;;;;0.57;0.57;;;9.00;99.90;;;;;;5010040;28;20124;-64
2022/11/05 07:29:50;;;;;;;0.10;0.10;;;9.00;99.90;;;;;;5025052;28;20049;-65
2022/11/05 07:32:16;;;;;;;0.10;0.10;;;9.00;99.90;;;;;;5067735;28;20046;-64
2022/11/05 07:34:41;;;;;;;0.10;0.10;;;9.10;99.90;;;;;;5059544;28;20048;-64
2022/11/05 07:37:08;;;;;;;0.10;0.10;;;9.20;99.90;;;;;;5052036;28;20041;-64
2022/11/05 07:39:34;;;;;;;0.00;0.00;;;9.20;99.90;;;;;;5062042;28;20147;-64
2022/11/05 07:41:59;;;;;;;0.10;0.10;;;9.30;99.90;;;;;;5057619;28;20091;-64
2022/11/05 07:44:25;;;;;;;0.00;0.00;;;9.40;99.90;;;;;;5056008;28;20060;-64
2022/11/05 07:46:50;;;;;;;0.00;0.00;;;9.40;99.90;;;;;;5059150;28;20048;-64
2022/11/05 07:49:17;;;;;;;0.10;0.10;;;9.40;99.90;;;;;;5039449;28;20052;-64
2022/11/05 07:51:43;;;;;;;0.10;0.10;;;9.50;99.90;;;;;;5063381;28;20735;-64
2022/11/05 07:54:09;;;;;;;0.10;0.10;;;9.60;99.90;;;;;;5057953;28;20060;-64
2022/11/05 07:56:34;;;;;;;0.10;0.10;;;9.60;99.90;;;;;;5055195;28;20037;-64
2022/11/05 07:59:00;;;;;;;0.10;0.10;;;9.60;99.90;;;;;;5058395;28;20403;-64
2022/11/05 08:01:26;;;;;;;0.10;0.10;;;9.70;99.90;;;;;;5057509;28;20173;-64
2022/11/05 08:03:51;;;;;;;0.10;0.10;;;9.60;99.90;;;;;;5048634;28;20052;-64
2022/11/05 08:06:17;;;;;;;0.40;0.40;;;9.70;99.90;;;;;;5059824;28;20385;-64
2022/11/05 08:08:42;;;;;;;0.10;0.10;;;9.70;99.90;;;;;;5050034;28;20168;-64
2022/11/05 08:11:10;;;;;;;0.15;0.15;;;9.70;99.90;;;;;;5066082;28;20040;-64
2022/11/05 08:13:36;;;;;;;0.10;0.10;;;9.70;99.90;;;;;;5060910;28;20095;-64
2022/11/05 08:16:03;;;;;;;0.10;0.10;;;9.80;99.90;;;;;;5050122;28;20088;-64
2022/11/05 08:18:30;;;;;;;0.10;0.10;;;9.80;99.90;;;;;;5049872;28;20045;-64
2022/11/05 08:21:04;;;;;;;0.10;0.10;;;9.80;99.90;;;;;;5049530;28;20033;-65
2022/11/05 08:23:30;;;;;;;;;;;9.80;99.90;;;;;;5049355;28;20084;-65
2022/11/05 08:25:56;;;;;;;0.10;0.10;;;9.80;99.90;;;;;;5054645;28;20429;-64
2022/11/05 08:28:23;;;;;;;0.20;0.20;;;9.80;99.90;;;;;;5067931;28;20500;-65
2022/11/05 08:30:54;;;;;;;0.00;0.00;;;9.80;99.90;;;;;;5069883;28;20053;-64
2022/11/05 08:33:21;;;;;;;0.10;0.10;;;9.80;99.90;;;;;;5047318;28;20078;-64
2022/11/05 08:35:47;;;;;;;0.10;0.10;;;9.80;99.90;;;;;;5067657;28;20036;-64
2022/11/05 08:38:16;;;;;;;0.10;0.10;;;9.90;99.90;;;;;;5062603;28;20083;-64
2022/11/05 08:40:43;;;;;;;0.10;0.10;;;9.80;99.90;;;;;;5059413;28;20071;-64
2022/11/05 08:43:10;;;;;;;0.10;0.10;;;9.80;99.90;;;;;;5065145;28;20049;-64
2022/11/05 08:45:37;;;;;;;0.98;0.98;;;9.90;99.90;;;;;;5066428;28;20177;-64
2022/11/05 08:48:05;;;;;;;0.10;0.10;;;9.90;99.90;;;;;;5049787;28;20060;-64
2022/11/05 08:50:32;;;;;;;0.22;0.22;;;9.90;99.90;;;;;;5062713;28;20097;-64
2022/11/05 08:52:58;;;;;;;0.10;0.10;;;9.90;99.90;;;;;;5045027;28;20517;-64
2022/11/05 08:55:24;;;;;;;0.10;0.10;;;10.00;99.90;;;;;;5047813;28;20076;-64
2022/11/05 08:57:57;;;;;;;0.10;0.10;;;10.00;99.90;;;;;;5051360;28;20502;-65
2022/11/05 09:00:24;;;;;;;0.10;0.10;;;10.10;99.90;;;;;;5036082;28;20120;-64
2022/11/05 09:02:49;;;;;;;0.25;0.25;;;10.20;99.90;;;;;;5058013;28;20048;-64
2022/11/05 09:05:15;;;;;;;1.50;1.05;;;10.20;99.90;;;;;;5063186;28;20044;-64
2022/11/05 09:07:40;;;;;;;0.20;0.20;;;10.30;99.90;;;;;;5046772;28;20135;-64
2022/11/05 09:10:06;;;;;;;0.10;0.10;;;10.40;99.90;;;;;;5043225;28;20128;-64
2022/11/05 09:12:32;;;;;;;0.10;0.10;;;10.50;99.90;;;;;;5072762;28;20049;-65
2022/11/05 09:14:57;;;;;;;0.10;0.10;;;10.50;99.90;;;;;;5066002;28;20041;-64
2022/11/05 09:17:23;;;;;;;0.10;0.10;;;10.50;99.90;;;;;;5054613;28;20449;-65
2022/11/05 09:19:49;;;;;;;0.10;0.10;;;10.50;99.90;;;;;;5052142;28;20609;-64
2022/11/05 09:22:14;;;;;;;0.10;0.10;;;10.60;99.90;;;;;;5067129;28;20041;-64
2022/11/05 09:24:41;;;;;;;0.63;0.63;;;10.60;99.90;;;;;;5070334;28;20058;-64
2022/11/05 09:27:09;;;;;;;0.68;0.68;;;10.60;99.90;;;;;;5056899;28;20048;-64
2022/11/05 09:29:35;;;;;;;0.10;0.10;;;10.70;99.90;;;;;;5069067;28;20048;-64
2022/11/05 09:32:01;;;;;;;3.13;0.70;;;10.80;99.90;;;;;;5066062;28;20117;-64
2022/11/05 09:34:27;;;;;;;0.15;0.15;;;10.80;99.90;;;;;;5061248;28;20156;-64
2022/11/05 09:36:52;;;;;;;0.10;0.10;;;10.80;99.90;;;;;;5035369;28;20049;-65
2022/11/05 09:39:18;;;;;;;0.00;0.00;;;10.80;99.90;;;;;;5051944;28;20041;-65
2022/11/05 09:41:45;;;;;;;0.08;0.08;;;10.90;99.90;;;;;;5049078;28;20810;-65
2022/11/05 09:44:14;;;;;;;0.10;0.10;;;11.10;99.90;;;;;;5070971;28;20052;-65
2022/11/05 09:46:56;;;;;;;0.10;0.10;;;11.40;99.90;;;;;;5053268;28;20049;-65
2022/11/05 09:49:24;;;;;;;0.10;0.10;;;11.70;99.90;;;;;;5058888;28;20044;-65
2022/11/05 09:51:53;;;;;;;0.08;0.08;;;11.90;99.90;;;;;;5056118;28;20127;-65
2022/11/05 09:54:24;;;;;;;0.10;0.10;;;12.20;99.90;;;;;;5067888;28;20048;-65
2022/11/05 09:56:51;;;;;;;0.82;0.25;;;12.30;99.90;;;;;;5055895;28;20040;-65
2022/11/05 09:59:21;;;;;;;0.10;0.10;;;12.30;99.90;;;;;;5053641;28;20515;-64
2022/11/05 10:01:48;;;;;;;0.10;0.10;;;12.10;99.90;;;;;;5055828;28;20055;-64
2022/11/05 10:04:22;;;;;;;1.15;0.63;;;12.10;99.90;;;;;;5034765;28;20128;-64
2022/11/05 10:06:56;;;;;;;0.10;0.10;;;11.90;99.90;;;;;;5055890;28;20056;-64
2022/11/05 10:09:37;;;;;;;5.47;2.90;;;11.90;99.90;;;;;;5034409;28;20056;-64
2022/11/05 10:12:11;;;;;;;0.10;0.10;;;11.80;99.90;;;;;;5051806;28;20049;-64
2022/11/05 10:14:41;;;;;;;0.10;0.10;;;11.80;99.90;;;;;;5051399;28;20179;-64
2022/11/05 10:17:27;;;;;;;0.10;0.10;;;11.80;99.90;;;;;;5052623;28;20063;-65
2022/11/05 10:20:14;;;;;;;0.10;0.08;;;11.90;99.90;;;;;;5064336;28;20044;-64
2022/11/05 10:22:40;;;;;;;1.05;0.95;;;12.00;99.90;;;;;;5063115;28;20065;-65
2022/11/05 10:25:17;;;;;;;0.10;0.10;;;12.10;99.90;;;;;;5070096;28;20036;-64
2022/11/05 10:27:52;;;;;;;0.10;0.10;;;12.20;99.90;;;;;;5034897;28;20055;-65
2022/11/05 10:30:18;;;;;;;0.10;0.10;;;12.20;99.90;;;;;;5051509;28;20068;-65
2022/11/05 10:32:45;;;;;;;0.10;0.10;;;12.30;99.90;;;;;;5069455;28;20094;-64
2022/11/05 10:35:21;;;;;;;0.25;0.25;;;12.40;99.90;;;;;;5053213;28;20561;-65
2022/11/05 10:37:48;;;;;;;0.10;0.10;;;12.40;99.90;;;;;;5051444;28;20515;-64
2022/11/05 10:40:35;;;;;;;0.10;0.10;;;12.40;99.90;;;;;;5062261;28;20055;-64
2022/11/05 10:43:18;;;;;;;0.00;0.00;;;12.40;99.90;;;;;;5056814;28;20045;-64
2022/11/05 10:46:00;;;;;;;0.10;0.10;;;12.40;99.90;;;;;;5058660;28;20048;-64
2022/11/05 10:48:34;;;;;;;0.10;0.10;;;12.50;99.90;;;;;;5066413;28;20506;-63
2022/11/05 10:50:59;;;;;;;;;;;12.50;99.90;;;;;;5060620;28;20543;-63
2022/11/05 10:53:52;;;;;;;0.55;0.55;;;12.60;99.90;;;;;;5067737;28;19921;-63
2022/11/05 10:56:33;;;;;;;0.10;0.10;;;12.50;99.90;;;;;;5045253;28;20067;-64
2022/11/05 10:59:01;;;;;;;0.10;0.10;;;12.50;99.90;;;;;;5065942;28;20041;-64
2022/11/05 11:01:28;;;;;;;0.10;0.10;;;12.50;99.90;;;;;;5041560;28;20049;-63
2022/11/05 11:04:26;;;;;;;0.15;0.15;;;12.50;99.90;;;;;;5057945;28;20124;-64
2022/11/05 11:06:54;;;;;;;0.20;0.20;;;12.50;99.90;;;;;;5058931;28;20048;-64
2022/11/05 11:09:26;;;;;;;0.80;0.63;;;12.40;99.90;;;;;;5066262;28;20068;-64
2022/11/05 11:12:15;;;;;;;0.98;0.63;;;12.40;99.90;;;;;;5069828;28;20032;-64
2022/11/05 11:14:41;;;;;;;0.10;0.10;;;12.40;99.90;;;;;;5061899;28;20090;-64
2022/11/05 11:17:29;;;;;;;0.00;0.00;;;12.40;99.90;;;;;;5068815;28;20074;-64
2022/11/05 11:20:27;;;;;;;0.00;0.00;;;12.40;99.90;;;;;;5051154;28;20068;-64
2022/11/05 11:23:13;;;;;;;0.10;0.10;;;12.30;99.90;;;;;;5057947;28;20131;-63
2022/11/05 11:25:59;;;;;;;0.05;0.05;;;12.30;99.90;;;;;;5066901;28;20087;-64
2022/11/05 11:28:31;;;;;;;0.10;0.10;;;12.20;99.90;;;;;;5067187;28;20048;-64
2022/11/05 11:31:21;;;;;;;0.00;0.00;;;12.20;99.90;;;;;;5050123;28;20076;-64
2022/11/05 11:34:03;;;;;;;0.10;0.10;;;12.10;99.90;;;;;;5056078;28;20055;-64
2022/11/05 11:36:37;;;;;;;0.10;0.10;;;12.00;99.90;;;;;;5034969;28;20041;-63
2022/11/05 11:39:05;;;;;;;0.15;0.15;;;11.90;99.90;;;;;;5069030;28;20051;-64
2022/11/05 11:41:37;;;;;;;0.10;0.10;;;11.90;99.90;;;;;;5055827;28;20037;-63
2022/11/05 11:44:25;;;;;;;0.10;0.10;;;11.90;99.90;;;;;;5066659;28;20127;-63
2022/11/05 11:46:54;;;;;;;0.93;0.93;;;11.80;99.90;;;;;;5066505;28;20191;-64
2022/11/05 11:49:53;;;;;;;0.10;0.10;;;11.80;99.90;;;;;;5064065;28;20564;-64
2022/11/05 11:52:34;;;;;;;3.95;0.75;;;11.70;99.90;;;;;;4988756;28;21990;-64
2022/11/05 11:55:12;;;;;;;0.05;0.05;;;11.70;99.90;;;;;;5037699;28;20119;-64
2022/11/05 11:57:47;;;;;;;0.10;0.10;;;11.60;99.90;;;;;;5070204;28;20157;-64
2022/11/05 12:00:14;;;;;;;0.10;0.10;;;11.60;99.90;;;;;;5048112;28;20056;-64
2022/11/05 12:02:59;;;;;;;0.10;0.10;;;11.60;99.90;;;;;;5068094;28;20149;-64
2022/11/05 12:05:57;;;;;;;1.70;1.45;;;11.50;99.90;;;;;;5048133;28;20058;-64
2022/11/05 12:08:31;;;;;;;5.72;2.45;;;11.50;99.90;;;;;;5051170;28;20049;-64
2022/11/05 12:11:24;;;;;;;0.10;0.10;;;11.50;99.90;;;;;;5070148;28;20091;-63
2022/11/05 12:14:01;;;;;;;0.20;0.20;;;11.40;99.90;;;;;;5061795;28;20052;-64
2022/11/05 12:16:59;;;;;;;0.90;0.63;;;11.40;99.90;;;;;;5058739;28;20053;-64
2022/11/05 12:19:42;;;;;;;0.10;0.10;;;11.30;99.90;;;;;;5055546;28;20779;-64
2022/11/05 12:22:34;;;;;;;0.10;0.10;;;11.30;99.90;;;;;;5055547;28;20123;-64
2022/11/05 12:25:16;;;;;;;0.22;0.22;;;11.30;99.90;;;;;;5070539;28;20051;-64
2022/11/05 12:27:54;;;;;;;0.10;0.10;;;11.30;99.90;;;;;;5055541;28;20045;-64
2022/11/05 12:30:21;;;;;;;0.10;0.10;;;11.30;99.90;;;;;;5049474;28;20063;-64
2022/11/05 12:33:12;;;;;;;0.15;0.15;;;11.30;99.90;;;;;;5048166;28;20955;-64
2022/11/05 12:35:56;;;;;;;0.10;0.10;;;11.30;99.90;;;;;;5056841;28;20376;-64
2022/11/05 12:38:45;;;;;;;8.98;0.85;;;11.30;99.90;;;;;;5056067;28;20053;-64
2022/11/05 12:41:25;;;;;;;3.00;0.75;;;11.30;99.90;;;;;;5024954;28;20087;-64
2022/11/05 12:44:04;;;;;;;0.10;0.10;;;11.30;99.90;;;;;;5073929;28;20051;-64
2022/11/05 12:46:48;;;;;;;0.10;0.10;;;11.40;99.90;;;;;;5062054;28;20055;-64
2022/11/05 12:49:58;;;;;;;0.10;0.10;;;11.40;99.90;;;;;;5064252;28;20044;-65
2022/11/05 12:52:27;;;;;;;0.08;0.08;;;11.50;99.90;;;;;;4991870;28;20418;-65
2022/11/05 12:55:02;;;;;;;0.00;0.00;;;11.60;99.90;;;;;;4993788;28;20078;-65
2022/11/05 12:57:30;;;;;;;0.57;0.57;;;12.00;99.90;;;;;;5030809;28;20060;-65
2022/11/05 13:00:13;;;;;;;0.10;0.10;;;12.40;99.90;;;;;;5069908;28;20048;-65
2022/11/05 13:02:59;;;;;;;0.10;0.10;;;12.50;99.90;;;;;;5072932;28;20090;-65
2022/11/05 13:05:32;;;;;;;0.10;0.10;;;12.50;99.90;;;;;;5067199;28;20310;-65
2022/11/05 13:08:11;;;;;;;0.10;0.10;;;12.40;99.90;;;;;;5057765;28;20091;-65
2022/11/05 13:10:59;;;;;;;0.10;0.10;;;12.50;99.90;;;;;;5055218;28;20044;-64
2022/11/05 13:13:41;;;;;;;0.10;0.10;;;12.40;99.90;;;;;;5055134;28;20627;-64
2022/11/05 13:16:35;;;;;;;0.10;0.10;;;12.40;99.90;;;;;;5054884;28;20249;-64
2022/11/05 13:19:37;;;;;;;0.10;0.10;;;12.40;99.90;;;;;;5063780;28;20495;-64
2022/11/05 13:22:23;;;;;;;0.32;0.32;;;12.40;99.90;;;;;;5016322;28;20076;-64
2022/11/05 13:24:53;;;;;;;0.13;0.13;;;12.40;99.90;;;;;;5056198;28;20045;-64
2022/11/05 13:27:37;;;;;;;0.47;0.47;;;12.40;99.90;;;;;;5055376;28;20524;-64
2022/11/05 13:30:05;;;;;;;0.20;0.20;;;12.40;99.90;;;;;;5037390;28;20739;-64
2022/11/05 13:32:34;;;;;;;0.13;0.13;;;12.30;99.90;;;;;;5056070;28;20045;-64
2022/11/05 13:35:03;;;;;;;0.57;0.57;;;12.30;99.90;;;;;;5056401;28;20044;-64
2022/11/05 13:40:47;;;;;;;0.10;0.10;;;12.20;99.90;;;;;;5055887;28;20510;-64
2022/11/05 13:43:23;;;;;;;0.10;0.10;;;12.20;99.90;;;;;;5066251;28;20053;-64
2022/11/05 13:46:15;;;;;;;0.65;0.55;;;12.10;99.90;;;;;;5062458;28;20468;-64
2022/11/05 13:48:58;;;;;;;0.45;0.45;;;12.10;99.90;;;;;;5052961;28;20124;-64
2022/11/05 13:51:44;;;;;;;0.28;0.28;;;12.10;99.90;;;;;;5052781;28;20809;-64
2022/11/05 13:54:36;;;;;;;0.10;0.10;;;12.10;99.90;;;;;;5051582;28;20041;-64
2022/11/05 13:57:05;;;;;;;0.10;0.10;;;12.00;99.90;;;;;;5059752;28;20044;-64
2022/11/05 13:59:52;;;;;;;0.63;0.63;;;12.00;99.90;;;;;;5050919;28;20167;-64
2022/11/05 14:02:20;;;;;;;0.90;0.55;;;12.00;99.90;;;;;;5057909;28;20053;-64
2022/11/05 14:04:49;;;;;;;1.08;0.73;;;11.90;99.90;;;;;;5071403;28;20044;-64
2022/11/05 14:07:28;;;;;;;0.20;0.20;;;11.90;99.90;;;;;;5053514;28;20052;-64